Аэропорт: Гянджа. Гянджа

ICAO: UBBG

METAR:
2021-04-21 19:00:00
UBBG 211900Z 16010KT 9999 VCTS SCT040CB BKN083 22/10 Q1015 R30/CLRD// NOSIG
METAR:
2021-04-21 17:00:00
TAF UBBG 211700Z 2118/2218 VRB06KT 9999 SCT040CB BKN100 TX28/2212Z TN16/2202Z TEMPO 2117/2121 30014KT -TSRA SCT030CB BKN060 BECMG 2121/2123 12010KT BECMG 2210/2212 VRB10KT -SHRA